createdAt,value
2019-04-05T00:03:35.650Z,7.80
2019-04-05T00:06:43.749Z,7.80
2019-04-05T00:09:51.769Z,7.70
2019-04-05T00:12:52.508Z,7.80
2019-04-05T00:15:53.069Z,7.90
2019-04-05T00:18:53.926Z,7.90
2019-04-05T00:21:54.817Z,7.90
2019-04-05T00:24:55.794Z,8.00
2019-04-05T00:27:56.574Z,7.80
2019-04-05T00:30:57.549Z,7.90
2019-04-05T00:33:57.929Z,8.00
2019-04-05T00:36:58.733Z,7.90
2019-04-05T00:39:59.397Z,8.00
2019-04-05T00:42:59.962Z,8.00
2019-04-05T00:46:00.634Z,7.90
2019-04-05T00:49:01.294Z,7.90
2019-04-05T00:52:02.224Z,7.90
2019-04-05T00:55:03.002Z,7.90
2019-04-05T00:58:03.941Z,7.90
2019-04-05T01:01:04.861Z,7.80
2019-04-05T01:04:05.878Z,8.00
2019-04-05T01:07:06.897Z,7.90
2019-04-05T01:10:07.758Z,7.90
2019-04-05T01:13:08.321Z,7.90
2019-04-05T01:16:09.445Z,7.80
2019-04-05T01:19:10.126Z,7.90
2019-04-05T01:22:10.953Z,7.80
2019-04-05T01:25:11.450Z,7.90
2019-04-05T01:28:12.476Z,7.90
2019-04-05T01:34:28.445Z,7.90
2019-04-05T01:37:36.881Z,7.90
2019-04-05T01:41:05.537Z,7.70
2019-04-05T01:44:13.582Z,7.70
2019-04-05T01:47:21.597Z,7.60
2019-04-05T01:50:29.701Z,7.70
2019-04-05T01:53:37.730Z,7.60
2019-04-05T01:56:45.745Z,7.50
2019-04-05T01:59:53.777Z,7.50
2019-04-05T02:03:01.830Z,7.60
2019-04-05T02:06:09.865Z,7.60
2019-04-05T02:09:17.994Z,7.60
2019-04-05T02:12:26.149Z,7.70
2019-04-05T02:16:05.649Z,7.60
2019-04-05T02:19:04.597Z,7.50
2019-04-05T02:22:12.618Z,7.40
2019-04-05T02:25:20.717Z,7.50
2019-04-05T02:28:28.736Z,7.50
2019-04-05T02:31:36.774Z,7.50
2019-04-05T02:34:44.810Z,7.30
2019-04-05T02:37:52.969Z,7.40
2019-04-05T02:41:01.390Z,7.30
2019-04-05T02:44:30.051Z,7.50
2019-04-05T02:47:58.859Z,7.50
2019-04-05T02:51:09.153Z,7.50
2019-04-05T02:54:17.536Z,7.50
2019-04-05T02:57:25.956Z,7.30
2019-04-05T03:00:34.167Z,7.40
2019-04-05T03:03:42.654Z,7.50
2019-04-05T03:07:11.317Z,7.40
2019-04-05T03:10:38.586Z,7.40
2019-04-05T03:13:39.050Z,7.50
2019-04-05T03:16:41.641Z,7.40
2019-04-05T03:19:42.675Z,7.50
2019-04-05T03:22:43.302Z,7.50
2019-04-05T03:25:43.815Z,7.50
2019-04-05T03:28:44.548Z,7.60
2019-04-05T03:31:45.136Z,7.70
2019-04-05T03:34:45.824Z,7.70
2019-04-05T03:37:46.246Z,7.60
2019-04-05T03:40:46.897Z,7.60
2019-04-05T03:43:47.568Z,7.50
2019-04-05T03:46:56.316Z,7.60
2019-04-05T03:49:50.835Z,7.50
2019-04-05T03:52:51.806Z,7.60
2019-04-05T03:55:52.442Z,7.70
2019-04-05T03:58:52.962Z,7.70
2019-04-05T04:01:53.476Z,7.60
2019-04-05T04:04:54.187Z,7.60
2019-04-05T04:07:54.959Z,7.60
2019-04-05T04:10:55.638Z,7.70
2019-04-05T04:13:56.360Z,7.80
2019-04-05T04:17:11.535Z,7.70
2019-04-05T04:19:59.250Z,7.70
2019-04-05T04:22:59.933Z,7.70
2019-04-05T04:26:01.217Z,7.80
2019-04-05T04:29:01.917Z,7.70
2019-04-05T04:32:02.651Z,7.60
2019-04-05T04:35:03.245Z,7.70
2019-04-05T04:38:03.866Z,7.70
2019-04-05T04:41:04.878Z,7.70
2019-04-05T04:44:05.298Z,7.70
2019-04-05T04:47:06.027Z,7.70
2019-04-05T04:50:06.794Z,7.60
2019-04-05T04:53:07.598Z,7.70
2019-04-05T04:56:08.382Z,7.70
2019-04-05T04:59:09.234Z,7.60
2019-04-05T05:02:09.930Z,7.70
2019-04-05T05:05:10.657Z,7.70
2019-04-05T05:08:11.789Z,7.70
2019-04-05T05:11:14.890Z,7.70
2019-04-05T05:14:15.334Z,7.80
2019-04-05T05:17:16.094Z,7.60
2019-04-05T05:20:16.898Z,7.70
2019-04-05T05:23:17.637Z,7.60
2019-04-05T05:26:18.554Z,7.50
2019-04-05T05:29:19.536Z,7.60
2019-04-05T05:32:20.266Z,7.70
2019-04-05T05:35:21.266Z,7.70
2019-04-05T05:38:21.890Z,7.70
2019-04-05T05:41:22.735Z,7.70
2019-04-05T05:44:23.722Z,7.80
2019-04-05T05:47:24.532Z,7.70
2019-04-05T05:50:25.217Z,7.70
2019-04-05T05:53:26.105Z,7.80
2019-04-05T05:56:27.151Z,7.80
2019-04-05T05:59:30.346Z,7.80
2019-04-05T06:02:30.781Z,7.80
2019-04-05T06:05:31.513Z,7.80
2019-04-05T06:08:32.249Z,7.80
2019-04-05T06:11:32.941Z,7.70
2019-04-05T06:14:33.796Z,7.80
2019-04-05T06:17:34.654Z,7.90
2019-04-05T06:20:35.646Z,7.80
2019-04-05T06:23:36.614Z,7.80
2019-04-05T06:26:37.421Z,7.90
2019-04-05T06:29:38.349Z,7.90
2019-04-05T06:32:38.754Z,7.90
2019-04-05T06:35:39.776Z,8.00
2019-04-05T06:38:40.548Z,8.00
2019-04-05T06:41:41.285Z,8.00
2019-04-05T06:44:42.065Z,8.00
2019-04-05T06:47:42.905Z,8.10
2019-04-05T06:50:43.346Z,8.10
2019-04-05T06:53:44.010Z,8.10
2019-04-05T06:56:44.969Z,8.10
2019-04-05T06:59:45.845Z,8.10
2019-04-05T07:02:46.646Z,8.10
2019-04-05T07:05:47.505Z,7.90
2019-04-05T07:08:53.960Z,7.80
2019-04-05T07:11:51.090Z,8.00
2019-04-05T07:14:52.080Z,8.10
2019-04-05T07:17:52.894Z,8.20
2019-04-05T07:20:53.584Z,8.20
2019-04-05T07:23:54.573Z,8.10
2019-04-05T07:26:55.225Z,8.20
2019-04-05T07:29:56.143Z,8.10
2019-04-05T07:32:56.873Z,8.00
2019-04-05T07:35:57.837Z,8.00
2019-04-05T07:38:58.592Z,8.10
2019-04-05T07:41:59.392Z,7.90
2019-04-05T07:45:00.418Z,7.80
2019-04-05T07:48:01.060Z,7.80
2019-04-05T07:51:01.867Z,7.90
2019-04-05T07:54:02.509Z,7.70
2019-04-05T07:57:03.117Z,8.00
2019-04-05T08:00:03.910Z,8.00
2019-04-05T08:03:04.339Z,7.90
2019-04-05T08:06:05.126Z,8.00
2019-04-05T08:09:06.304Z,7.90
2019-04-05T08:12:07.301Z,7.90
2019-04-05T08:15:08.126Z,8.00
2019-04-05T08:18:08.733Z,8.00
2019-04-05T08:21:09.593Z,7.80
2019-04-05T08:24:10.814Z,7.90
2019-04-05T08:27:11.559Z,7.80
2019-04-05T08:30:12.432Z,7.90
2019-04-05T08:33:13.365Z,7.90
2019-04-05T08:36:14.092Z,7.80
2019-04-05T08:39:14.598Z,7.80
2019-04-05T08:42:15.587Z,7.80
2019-04-05T08:45:16.193Z,8.00
2019-04-05T08:48:16.813Z,8.00
2019-04-05T08:51:17.705Z,8.00
2019-04-05T08:54:31.605Z,8.00
2019-04-05T08:57:21.426Z,8.10
2019-04-05T09:00:22.400Z,8.20
2019-04-05T09:03:23.042Z,8.20
2019-04-05T09:06:23.974Z,8.10
2019-04-05T09:09:24.697Z,8.20
2019-04-05T09:12:25.355Z,8.20
2019-04-05T09:15:24.471Z,8.20
2019-04-05T09:18:32.505Z,8.30
2019-04-05T09:21:40.791Z,8.40
2019-04-05T09:24:50.249Z,8.40
2019-04-05T09:27:58.286Z,8.30
2019-04-05T09:31:06.370Z,8.20
2019-04-05T09:34:14.409Z,8.20
2019-04-05T09:37:22.446Z,8.10
2019-04-05T09:40:30.462Z,8.20
2019-04-05T09:43:38.486Z,8.30
2019-04-05T09:46:50.902Z,8.30
2019-04-05T09:49:56.237Z,8.30
2019-04-05T09:53:04.276Z,8.20
2019-04-05T09:56:12.367Z,8.30
2019-04-05T09:59:20.410Z,8.40
2019-04-05T10:02:31.595Z,8.30
2019-04-05T10:05:38.221Z,8.40
2019-04-05T10:08:46.257Z,8.40
2019-04-05T10:11:54.282Z,8.10
2019-04-05T10:14:55.142Z,8.10
2019-04-05T10:17:55.973Z,8.10
2019-04-05T10:20:56.600Z,8.20
2019-04-05T10:23:57.286Z,8.20
2019-04-05T10:26:58.285Z,8.40
2019-04-05T10:29:59.184Z,8.40
2019-04-05T10:33:00.267Z,8.10
2019-04-05T10:36:01.210Z,8.30
2019-04-05T10:39:02.302Z,8.40
2019-04-05T10:42:04.059Z,8.40
2019-04-05T10:45:05.276Z,8.40
2019-04-05T10:48:06.373Z,8.40
2019-04-05T10:51:07.238Z,8.50
2019-04-05T10:54:09.554Z,8.40
2019-04-05T10:57:10.391Z,8.50
2019-04-05T11:00:11.741Z,8.40
2019-04-05T11:03:12.926Z,8.50
2019-04-05T11:06:13.305Z,8.60
2019-04-05T11:09:14.149Z,8.60
2019-04-05T11:12:17.561Z,8.60
2019-04-05T11:15:18.437Z,8.60
2019-04-05T11:18:19.110Z,8.50
2019-04-05T11:21:19.501Z,8.70
2019-04-05T11:24:19.985Z,8.70
2019-04-05T11:27:20.662Z,8.60
2019-04-05T11:30:21.349Z,8.70
2019-04-05T11:33:22.226Z,8.80
2019-04-05T11:36:22.978Z,8.60
2019-04-05T11:39:23.650Z,8.70
2019-04-05T11:42:24.372Z,8.70
2019-04-05T11:45:24.901Z,8.80
2019-04-05T11:48:25.456Z,8.80
2019-04-05T11:51:26.076Z,8.80
2019-04-05T11:54:27.022Z,8.80
2019-04-05T11:57:27.902Z,8.90
2019-04-05T12:03:44.011Z,8.90
2019-04-05T12:06:44.986Z,8.90
2019-04-05T12:09:46.024Z,8.80
2019-04-05T12:12:48.601Z,8.90
2019-04-05T12:15:49.551Z,8.90
2019-04-05T12:18:50.409Z,8.90
2019-04-05T12:21:51.114Z,8.90
2019-04-05T12:24:51.742Z,9.00
2019-04-05T12:28:00.336Z,8.90
2019-04-05T12:30:55.236Z,8.70
2019-04-05T12:33:56.165Z,8.80
2019-04-05T12:36:44.949Z,8.90
2019-04-05T12:39:52.984Z,8.80
2019-04-05T12:43:01.000Z,8.80
2019-04-05T12:46:09.106Z,8.90
2019-04-05T12:49:17.137Z,9.00
2019-04-05T12:52:27.468Z,9.10
2019-04-05T12:55:34.881Z,9.00
2019-04-05T12:58:42.894Z,9.10
2019-04-05T13:01:51.001Z,8.80
2019-04-05T13:04:59.029Z,9.00
2019-04-05T13:08:07.046Z,9.10
2019-04-05T13:11:15.077Z,8.90
2019-04-05T13:14:15.904Z,9.00
2019-04-05T13:17:16.896Z,9.10
2019-04-05T13:20:17.604Z,9.20
2019-04-05T13:23:18.194Z,9.20
2019-04-05T13:26:18.950Z,9.20
2019-04-05T13:29:20.316Z,9.20
2019-04-05T13:32:21.550Z,9.20
2019-04-05T13:35:29.161Z,9.20
2019-04-05T13:38:37.174Z,9.00
2019-04-05T13:41:45.221Z,8.90
2019-04-05T13:44:53.255Z,9.00
2019-04-05T13:48:01.265Z,9.00
2019-04-05T13:51:10.393Z,9.00
2019-04-05T13:54:19.005Z,9.00
2019-04-05T13:57:28.513Z,9.00
2019-04-05T14:00:36.830Z,9.00
2019-04-05T14:03:44.837Z,9.10
2019-04-05T14:06:53.674Z,9.00
2019-04-05T14:10:02.681Z,9.00
2019-04-05T14:13:10.713Z,9.10
2019-04-05T14:16:18.742Z,8.90
2019-04-05T14:19:28.805Z,8.70
2019-04-05T14:22:36.496Z,8.80
2019-04-05T14:25:44.529Z,8.90
2019-04-05T14:28:53.119Z,9.10
2019-04-05T14:32:19.387Z,9.10
2019-04-05T14:38:11.812Z,9.20
2019-04-05T14:41:20.825Z,9.10
2019-04-05T14:44:28.838Z,9.10
2019-04-05T14:47:36.945Z,9.10
2019-04-05T14:53:59.597Z,9.00
2019-04-05T14:57:08.649Z,9.00
2019-04-05T15:03:45.802Z,8.80
2019-04-05T15:10:07.257Z,8.80
2019-04-05T15:12:56.058Z,8.80
2019-04-05T15:15:57.024Z,8.90
2019-04-05T15:18:57.706Z,9.00
2019-04-05T15:22:05.585Z,9.00
2019-04-05T15:25:01.459Z,8.70
2019-04-05T15:28:02.188Z,8.80
2019-04-05T15:31:03.100Z,8.80
2019-04-05T15:34:04.098Z,9.00
2019-04-05T15:37:05.590Z,9.00
2019-04-05T15:40:05.994Z,9.00
2019-04-05T15:43:07.049Z,9.00
2019-04-05T15:46:08.033Z,9.00
2019-04-05T15:49:08.881Z,9.10
2019-04-05T15:52:18.570Z,9.00
2019-04-05T15:55:12.699Z,9.00
2019-04-05T15:58:13.369Z,9.00
2019-04-05T16:01:14.405Z,9.00
2019-04-05T16:04:15.137Z,9.00
2019-04-05T16:07:15.789Z,9.00
2019-04-05T16:10:16.461Z,8.90
2019-04-05T16:13:17.362Z,9.00
2019-04-05T16:16:18.081Z,8.80
2019-04-05T16:19:18.917Z,8.90
2019-04-05T16:22:30.854Z,9.00
2019-04-05T16:25:22.376Z,8.90
2019-04-05T16:28:23.118Z,8.90
2019-04-05T16:31:23.696Z,9.00
2019-04-05T16:34:24.516Z,9.10
2019-04-05T16:37:25.261Z,8.90
2019-04-05T16:40:26.149Z,9.00
2019-04-05T16:43:26.909Z,8.90
2019-04-05T16:46:27.561Z,8.90
2019-04-05T16:49:28.478Z,8.90
2019-04-05T16:52:29.429Z,9.00
2019-04-05T16:55:30.097Z,9.10
2019-04-05T16:58:30.849Z,9.10
2019-04-05T17:01:31.697Z,9.10
2019-04-05T17:04:32.477Z,9.10
2019-04-05T17:07:33.270Z,9.10
2019-04-05T17:10:34.581Z,9.00
2019-04-05T17:13:35.008Z,9.10
2019-04-05T17:16:35.721Z,9.00
2019-04-05T17:19:36.464Z,8.90
2019-04-05T17:22:37.320Z,9.00
2019-04-05T17:25:37.790Z,9.10
2019-04-05T17:28:38.808Z,9.10
2019-04-05T17:31:39.296Z,9.10
2019-04-05T17:34:41.210Z,9.10
2019-04-05T17:37:41.873Z,9.10
2019-04-05T17:40:42.886Z,9.10
2019-04-05T17:43:43.574Z,9.10
2019-04-05T17:46:44.334Z,9.10
2019-04-05T17:49:45.122Z,9.10
2019-04-05T17:52:45.786Z,9.10
2019-04-05T17:55:46.937Z,9.10
2019-04-05T17:58:47.686Z,9.10
2019-04-05T18:01:48.395Z,9.10
2019-04-05T18:04:49.137Z,9.10
2019-04-05T18:07:50.261Z,9.10
2019-04-05T18:10:51.085Z,9.10
2019-04-05T18:13:52.192Z,9.10
2019-04-05T18:16:53.051Z,9.10
2019-04-05T18:19:53.849Z,9.10
2019-04-05T18:22:54.494Z,9.10
2019-04-05T18:25:55.494Z,9.10
2019-04-05T18:28:56.117Z,9.10
2019-04-05T18:31:56.793Z,9.10
2019-04-05T18:34:57.569Z,9.10
2019-04-05T18:37:58.131Z,9.10
2019-04-05T18:40:58.773Z,9.10
2019-04-05T18:43:59.441Z,9.10
2019-04-05T18:47:00.342Z,9.10
2019-04-05T18:50:03.226Z,9.20
2019-04-05T18:53:04.242Z,9.10
2019-04-05T18:56:05.161Z,9.10
2019-04-05T18:59:05.797Z,9.10
2019-04-05T19:02:06.513Z,9.10
2019-04-05T19:05:07.296Z,9.10
2019-04-05T19:08:08.290Z,9.10
2019-04-05T19:11:09.241Z,9.10
2019-04-05T19:14:09.867Z,9.10
2019-04-05T19:17:22.901Z,9.10
2019-04-05T19:20:13.383Z,9.10
2019-04-05T19:23:14.113Z,9.20
2019-04-05T19:26:14.982Z,9.10
2019-04-05T19:29:15.822Z,9.20
2019-04-05T19:50:33.261Z,9.20
2019-04-05T19:53:34.025Z,9.10
2019-04-05T19:56:35.271Z,9.10
2019-04-05T19:59:36.279Z,9.10
2019-04-05T20:02:37.305Z,9.10
2019-04-05T20:05:37.858Z,9.10
2019-04-05T20:08:38.524Z,9.10
2019-04-05T20:11:39.086Z,9.10
2019-04-05T20:14:39.621Z,9.00
2019-04-05T20:17:40.319Z,9.10
2019-04-05T20:20:41.300Z,9.00
2019-04-05T20:23:47.492Z,9.10
2019-04-05T20:26:44.990Z,9.10
2019-04-05T20:29:45.777Z,9.10
2019-04-05T20:32:46.377Z,9.10
2019-04-05T20:35:47.137Z,9.10
2019-04-05T20:38:47.941Z,9.10
2019-04-05T20:41:48.842Z,9.00
2019-04-05T20:44:49.685Z,9.00
2019-04-05T20:47:50.474Z,9.00
2019-04-05T20:50:51.277Z,9.00
2019-04-05T20:53:52.023Z,9.00
2019-04-05T20:56:52.841Z,9.00
2019-04-05T20:59:53.927Z,9.00
2019-04-05T21:02:54.784Z,9.00
2019-04-05T21:05:55.557Z,9.00
2019-04-05T21:08:56.390Z,9.00
2019-04-05T21:11:57.114Z,9.00
2019-04-05T21:14:58.114Z,9.00
2019-04-05T21:17:58.790Z,9.00
2019-04-05T21:20:59.625Z,9.00
2019-04-05T21:24:00.556Z,9.00
2019-04-05T21:27:01.414Z,8.90
2019-04-05T21:30:02.341Z,8.90
2019-04-05T21:33:03.014Z,8.90
2019-04-05T21:36:03.665Z,8.80
2019-04-05T21:39:04.768Z,8.80
2019-04-05T21:42:12.777Z,8.80
2019-04-05T21:45:20.809Z,8.80
2019-04-05T21:48:30.633Z,8.80
2019-04-05T21:51:38.551Z,8.70
2019-04-05T21:54:47.809Z,8.70
2019-04-05T22:04:40.534Z,8.70
2019-04-05T22:07:48.548Z,8.70
2019-04-05T22:10:56.581Z,8.70
2019-04-05T22:13:57.669Z,8.70
2019-04-05T22:16:58.671Z,8.60
2019-04-05T22:19:59.181Z,8.60
2019-04-05T22:22:59.645Z,8.60
2019-04-05T22:26:00.228Z,8.60
2019-04-05T22:29:00.721Z,8.60
2019-04-05T22:32:01.583Z,8.60
2019-04-05T22:35:02.410Z,8.60
2019-04-05T22:38:02.954Z,8.60
2019-04-05T22:41:03.845Z,8.60
2019-04-05T22:44:04.722Z,8.60
2019-04-05T22:47:05.279Z,8.60
2019-04-05T22:50:05.898Z,8.60
2019-04-05T22:53:06.424Z,8.60
2019-04-05T22:56:07.233Z,8.50
2019-04-05T22:59:07.602Z,8.60
2019-04-05T23:02:08.374Z,8.60
2019-04-05T23:05:09.209Z,8.60
2019-04-05T23:08:10.117Z,8.60
2019-04-05T23:11:10.861Z,8.60
2019-04-05T23:14:11.585Z,8.60
2019-04-05T23:17:12.617Z,8.60
2019-04-05T23:20:13.534Z,8.60
2019-04-05T23:23:14.341Z,8.50
2019-04-05T23:26:14.873Z,8.60
2019-04-05T23:29:15.822Z,8.60
2019-04-05T23:32:16.705Z,8.60
2019-04-05T23:35:17.562Z,8.60
2019-04-05T23:38:18.233Z,8.60
2019-04-05T23:41:19.137Z,8.60
2019-04-05T23:44:19.909Z,8.60
2019-04-05T23:47:20.727Z,8.70
2019-04-05T23:50:21.506Z,8.70
2019-04-05T23:53:22.329Z,8.70
2019-04-05T23:56:23.100Z,8.70
2019-04-05T23:59:23.933Z,8.70
